sensor_id;sensor_type;location;lat;lon;timestamp;temperature;humidity
62809;DHT22;48848;39.002;-94.584;2022-09-12T00:00:13;24.30;45.80
62809;DHT22;48848;39.002;-94.584;2022-09-12T00:02:40;24.30;45.70
62809;DHT22;48848;39.002;-94.584;2022-09-12T00:05:06;24.30;45.70
62809;DHT22;48848;39.002;-94.584;2022-09-12T00:07:33;24.40;45.90
62809;DHT22;48848;39.002;-94.584;2022-09-12T00:09:59;24.40;45.80
62809;DHT22;48848;39.002;-94.584;2022-09-12T00:12:25;24.40;45.80
62809;DHT22;48848;39.002;-94.584;2022-09-12T00:14:51;24.50;45.50
62809;DHT22;48848;39.002;-94.584;2022-09-12T00:17:18;24.50;45.50
62809;DHT22;48848;39.002;-94.584;2022-09-12T00:19:44;24.50;44.50
62809;DHT22;48848;39.002;-94.584;2022-09-12T00:22:10;24.50;43.50
62809;DHT22;48848;39.002;-94.584;2022-09-12T00:24:36;24.60;42.40
62809;DHT22;48848;39.002;-94.584;2022-09-12T00:27:05;24.40;43.40
62809;DHT22;48848;39.002;-94.584;2022-09-12T00:29:31;24.30;44.50
62809;DHT22;48848;39.002;-94.584;2022-09-12T00:31:58;24.10;44.60
62809;DHT22;48848;39.002;-94.584;2022-09-12T00:34:24;24.00;44.70
62809;DHT22;48848;39.002;-94.584;2022-09-12T00:36:50;23.90;44.70
62809;DHT22;48848;39.002;-94.584;2022-09-12T00:39:16;23.80;44.60
62809;DHT22;48848;39.002;-94.584;2022-09-12T00:41:43;23.70;44.70
62809;DHT22;48848;39.002;-94.584;2022-09-12T00:46:45;23.50;44.80
62809;DHT22;48848;39.002;-94.584;2022-09-12T00:49:39;23.50;44.60
62809;DHT22;48848;39.002;-94.584;2022-09-12T00:52:15;23.50;44.50
62809;DHT22;48848;39.002;-94.584;2022-09-12T00:57:20;23.30;45.30
62809;DHT22;48848;39.002;-94.584;2022-09-12T01:00:09;23.20;45.00
62809;DHT22;48848;39.002;-94.584;2022-09-12T01:02:39;23.10;47.10
62809;DHT22;48848;39.002;-94.584;2022-09-12T01:05:06;23.10;44.30
62809;DHT22;48848;39.002;-94.584;2022-09-12T01:07:37;23.10;43.60
62809;DHT22;48848;39.002;-94.584;2022-09-12T01:10:05;23.10;43.50
62809;DHT22;48848;39.002;-94.584;2022-09-12T01:12:33;23.10;45.40
62809;DHT22;48848;39.002;-94.584;2022-09-12T01:14:59;23.20;47.20
62809;DHT22;48848;39.002;-94.584;2022-09-12T01:17:37;23.40;47.40
62809;DHT22;48848;39.002;-94.584;2022-09-12T01:23:43;23.70;46.10
62809;DHT22;48848;39.002;-94.584;2022-09-12T01:28:47;23.90;46.40
62809;DHT22;48848;39.002;-94.584;2022-09-12T01:47:49;23.40;45.40
62809;DHT22;48848;39.002;-94.584;2022-09-12T01:50:32;23.10;45.20
62809;DHT22;48848;39.002;-94.584;2022-09-12T01:56:07;22.90;44.90
62809;DHT22;48848;39.002;-94.584;2022-09-12T01:58:49;22.70;44.50
62809;DHT22;48848;39.002;-94.584;2022-09-12T02:01:25;22.80;45.70
62809;DHT22;48848;39.002;-94.584;2022-09-12T02:04:17;23.10;45.40
62809;DHT22;48848;39.002;-94.584;2022-09-12T02:06:55;23.40;45.40
62809;DHT22;48848;39.002;-94.584;2022-09-12T02:12:14;23.40;48.60
62809;DHT22;48848;39.002;-94.584;2022-09-12T02:14:47;23.50;49.80
62809;DHT22;48848;39.002;-94.584;2022-09-12T02:17:21;23.50;50.00
62809;DHT22;48848;39.002;-94.584;2022-09-12T02:20:02;23.60;50.10
62809;DHT22;48848;39.002;-94.584;2022-09-12T02:22:31;23.70;50.60
62809;DHT22;48848;39.002;-94.584;2022-09-12T02:25:00;23.70;50.40
62809;DHT22;48848;39.002;-94.584;2022-09-12T02:27:36;23.80;50.50
62809;DHT22;48848;39.002;-94.584;2022-09-12T02:30:07;23.80;50.40
62809;DHT22;48848;39.002;-94.584;2022-09-12T02:32:37;23.80;50.30
62809;DHT22;48848;39.002;-94.584;2022-09-12T02:35:36;23.80;50.20
62809;DHT22;48848;39.002;-94.584;2022-09-12T02:38:06;23.90;50.20
62809;DHT22;48848;39.002;-94.584;2022-09-12T02:40:34;23.90;50.20
62809;DHT22;48848;39.002;-94.584;2022-09-12T02:43:02;23.90;49.80
62809;DHT22;48848;39.002;-94.584;2022-09-12T02:45:29;23.90;49.60
62809;DHT22;48848;39.002;-94.584;2022-09-12T02:48:13;23.90;49.50
62809;DHT22;48848;39.002;-94.584;2022-09-12T02:50:42;24.00;49.30
62809;DHT22;48848;39.002;-94.584;2022-09-12T02:53:09;24.00;49.10
62809;DHT22;48848;39.002;-94.584;2022-09-12T02:55:38;24.00;49.00
62809;DHT22;48848;39.002;-94.584;2022-09-12T02:58:07;24.00;49.10
62809;DHT22;48848;39.002;-94.584;2022-09-12T03:00:37;24.10;49.10
62809;DHT22;48848;39.002;-94.584;2022-09-12T03:03:25;24.00;48.50
62809;DHT22;48848;39.002;-94.584;2022-09-12T03:06:01;23.70;47.10
62809;DHT22;48848;39.002;-94.584;2022-09-12T03:11:32;22.90;46.70
62809;DHT22;48848;39.002;-94.584;2022-09-12T03:26:12;22.10;45.80
62809;DHT22;48848;39.002;-94.584;2022-09-12T03:28:14;21.90;45.60
62809;DHT22;48848;39.002;-94.584;2022-09-12T03:30:45;21.80;45.40
62809;DHT22;48848;39.002;-94.584;2022-09-12T03:33:14;21.70;45.40
62809;DHT22;48848;39.002;-94.584;2022-09-12T03:35:40;21.70;45.20
62809;DHT22;48848;39.002;-94.584;2022-09-12T03:38:07;21.60;45.10
62809;DHT22;48848;39.002;-94.584;2022-09-12T03:40:34;21.50;44.70
62809;DHT22;48848;39.002;-94.584;2022-09-12T03:43:02;21.40;44.80
62809;DHT22;48848;39.002;-94.584;2022-09-12T03:45:28;21.30;44.90
62809;DHT22;48848;39.002;-94.584;2022-09-12T03:47:54;21.20;44.80
62809;DHT22;48848;39.002;-94.584;2022-09-12T03:50:20;21.20;44.60
62809;DHT22;48848;39.002;-94.584;2022-09-12T03:52:47;21.10;44.80
62809;DHT22;48848;39.002;-94.584;2022-09-12T03:55:13;21.00;44.70
62809;DHT22;48848;39.002;-94.584;2022-09-12T03:57:39;20.90;44.80
62809;DHT22;48848;39.002;-94.584;2022-09-12T04:00:06;20.90;44.80
62809;DHT22;48848;39.002;-94.584;2022-09-12T04:02:33;20.80;44.90
62809;DHT22;48848;39.002;-94.584;2022-09-12T04:05:00;20.80;45.00
62809;DHT22;48848;39.002;-94.584;2022-09-12T04:07:26;20.70;46.00
62809;DHT22;48848;39.002;-94.584;2022-09-12T04:09:53;20.70;44.90
62809;DHT22;48848;39.002;-94.584;2022-09-12T04:12:20;20.60;44.90
62809;DHT22;48848;39.002;-94.584;2022-09-12T04:14:46;20.50;44.80
62809;DHT22;48848;39.002;-94.584;2022-09-12T04:17:13;20.60;46.50
62809;DHT22;48848;39.002;-94.584;2022-09-12T04:19:39;20.70;49.20
62809;DHT22;48848;39.002;-94.584;2022-09-12T04:22:05;20.90;50.40
62809;DHT22;48848;39.002;-94.584;2022-09-12T04:24:31;21.00;52.50
62809;DHT22;48848;39.002;-94.584;2022-09-12T04:26:57;21.10;52.40
62809;DHT22;48848;39.002;-94.584;2022-09-12T04:29:24;21.20;52.60
62809;DHT22;48848;39.002;-94.584;2022-09-12T04:31:50;21.30;52.70
62809;DHT22;48848;39.002;-94.584;2022-09-12T04:34:16;21.40;52.80
62809;DHT22;48848;39.002;-94.584;2022-09-12T04:36:42;21.50;52.60
62809;DHT22;48848;39.002;-94.584;2022-09-12T04:39:09;21.50;52.40
62809;DHT22;48848;39.002;-94.584;2022-09-12T04:41:36;21.50;52.40
62809;DHT22;48848;39.002;-94.584;2022-09-12T04:44:10;21.60;52.20
62809;DHT22;48848;39.002;-94.584;2022-09-12T04:46:37;21.60;52.20
62809;DHT22;48848;39.002;-94.584;2022-09-12T04:49:03;21.60;52.00
62809;DHT22;48848;39.002;-94.584;2022-09-12T04:51:30;21.60;51.90
62809;DHT22;48848;39.002;-94.584;2022-09-12T04:54:05;21.60;51.80
62809;DHT22;48848;39.002;-94.584;2022-09-12T04:56:31;21.60;51.70
62809;DHT22;48848;39.002;-94.584;2022-09-12T04:59:00;21.70;51.80
62809;DHT22;48848;39.002;-94.584;2022-09-12T05:01:27;21.60;51.80
62809;DHT22;48848;39.002;-94.584;2022-09-12T05:03:55;21.60;51.90
62809;DHT22;48848;39.002;-94.584;2022-09-12T05:06:24;21.60;51.40
62809;DHT22;48848;39.002;-94.584;2022-09-12T05:08:51;21.60;51.50
62809;DHT22;48848;39.002;-94.584;2022-09-12T05:11:20;21.70;51.10
62809;DHT22;48848;39.002;-94.584;2022-09-12T05:13:47;21.60;51.10
62809;DHT22;48848;39.002;-94.584;2022-09-12T05:16:14;21.60;51.00
62809;DHT22;48848;39.002;-94.584;2022-09-12T05:18:42;21.70;50.80
62809;DHT22;48848;39.002;-94.584;2022-09-12T05:21:11;21.60;50.80
62809;DHT22;48848;39.002;-94.584;2022-09-12T05:23:38;21.60;50.50
62809;DHT22;48848;39.002;-94.584;2022-09-12T05:26:06;21.60;50.60
62809;DHT22;48848;39.002;-94.584;2022-09-12T05:28:36;21.60;50.60
62809;DHT22;48848;39.002;-94.584;2022-09-12T05:33:30;21.60;50.70
62809;DHT22;48848;39.002;-94.584;2022-09-12T05:35:57;21.60;50.70
62809;DHT22;48848;39.002;-94.584;2022-09-12T05:38:23;21.60;50.60
62809;DHT22;48848;39.002;-94.584;2022-09-12T05:40:50;21.60;50.70
62809;DHT22;48848;39.002;-94.584;2022-09-12T05:43:17;21.60;50.50
62809;DHT22;48848;39.002;-94.584;2022-09-12T05:45:45;21.60;50.60
62809;DHT22;48848;39.002;-94.584;2022-09-12T05:48:11;21.60;50.60
62809;DHT22;48848;39.002;-94.584;2022-09-12T05:50:37;21.50;50.50
62809;DHT22;48848;39.002;-94.584;2022-09-12T05:53:03;21.60;50.40
62809;DHT22;48848;39.002;-94.584;2022-09-12T05:55:29;21.50;50.40
62809;DHT22;48848;39.002;-94.584;2022-09-12T05:57:56;21.50;50.40
62809;DHT22;48848;39.002;-94.584;2022-09-12T06:00:22;21.50;50.50
62809;DHT22;48848;39.002;-94.584;2022-09-12T06:02:51;21.50;50.50
62809;DHT22;48848;39.002;-94.584;2022-09-12T06:05:18;21.50;50.30
62809;DHT22;48848;39.002;-94.584;2022-09-12T06:07:47;21.50;50.40
62809;DHT22;48848;39.002;-94.584;2022-09-12T06:10:13;21.50;50.40
62809;DHT22;48848;39.002;-94.584;2022-09-12T06:12:41;21.50;50.40
62809;DHT22;48848;39.002;-94.584;2022-09-12T06:15:08;21.50;50.50
62809;DHT22;48848;39.002;-94.584;2022-09-12T06:17:35;21.50;50.50
62809;DHT22;48848;39.002;-94.584;2022-09-12T06:23:14;21.40;50.40
62809;DHT22;48848;39.002;-94.584;2022-09-12T06:25:46;21.50;50.40
62809;DHT22;48848;39.002;-94.584;2022-09-12T06:28:12;21.40;50.40
62809;DHT22;48848;39.002;-94.584;2022-09-12T06:30:39;21.40;50.30
62809;DHT22;48848;39.002;-94.584;2022-09-12T06:33:05;21.40;50.60
62809;DHT22;48848;39.002;-94.584;2022-09-12T06:35:35;21.50;50.70
62809;DHT22;48848;39.002;-94.584;2022-09-12T06:38:01;21.40;50.60
62809;DHT22;48848;39.002;-94.584;2022-09-12T06:40:27;21.40;50.70
62809;DHT22;48848;39.002;-94.584;2022-09-12T06:42:54;21.40;50.70
62809;DHT22;48848;39.002;-94.584;2022-09-12T06:45:20;21.40;50.70
62809;DHT22;48848;39.002;-94.584;2022-09-12T06:47:47;21.40;50.70
62809;DHT22;48848;39.002;-94.584;2022-09-12T06:50:13;21.40;50.60
62809;DHT22;48848;39.002;-94.584;2022-09-12T06:52:39;21.40;50.70
62809;DHT22;48848;39.002;-94.584;2022-09-12T06:55:06;21.40;50.70
62809;DHT22;48848;39.002;-94.584;2022-09-12T06:57:32;21.40;50.60
62809;DHT22;48848;39.002;-94.584;2022-09-12T07:00:03;21.40;50.70
62809;DHT22;48848;39.002;-94.584;2022-09-12T07:02:30;21.30;50.70
62809;DHT22;48848;39.002;-94.584;2022-09-12T07:04:56;21.30;50.90
62809;DHT22;48848;39.002;-94.584;2022-09-12T07:07:22;21.30;50.80
62809;DHT22;48848;39.002;-94.584;2022-09-12T07:09:49;21.30;50.80
62809;DHT22;48848;39.002;-94.584;2022-09-12T07:12:15;21.30;51.00
62809;DHT22;48848;39.002;-94.584;2022-09-12T07:14:41;21.30;50.90
62809;DHT22;48848;39.002;-94.584;2022-09-12T07:17:07;21.30;50.90
62809;DHT22;48848;39.002;-94.584;2022-09-12T07:19:34;21.30;50.80
62809;DHT22;48848;39.002;-94.584;2022-09-12T07:22:00;21.30;50.90
62809;DHT22;48848;39.002;-94.584;2022-09-12T07:24:26;21.30;51.00
62809;DHT22;48848;39.002;-94.584;2022-09-12T07:26:52;21.20;50.90
62809;DHT22;48848;39.002;-94.584;2022-09-12T07:29:19;21.20;50.80
62809;DHT22;48848;39.002;-94.584;2022-09-12T07:31:45;21.20;51.10
62809;DHT22;48848;39.002;-94.584;2022-09-12T07:34:11;21.20;51.30
62809;DHT22;48848;39.002;-94.584;2022-09-12T07:36:38;21.20;52.10
62809;DHT22;48848;39.002;-94.584;2022-09-12T07:39:05;21.20;51.30
62809;DHT22;48848;39.002;-94.584;2022-09-12T07:41:32;21.20;52.00
62809;DHT22;48848;39.002;-94.584;2022-09-12T07:44:01;21.20;51.00
62809;DHT22;48848;39.002;-94.584;2022-09-12T07:46:29;21.20;50.90
62809;DHT22;48848;39.002;-94.584;2022-09-12T07:48:57;21.20;51.20
62809;DHT22;48848;39.002;-94.584;2022-09-12T07:51:24;21.10;51.10
62809;DHT22;48848;39.002;-94.584;2022-09-12T07:53:51;21.10;51.10
62809;DHT22;48848;39.002;-94.584;2022-09-12T07:56:18;21.10;51.40
62809;DHT22;48848;39.002;-94.584;2022-09-12T07:58:45;21.10;51.50
62809;DHT22;48848;39.002;-94.584;2022-09-12T08:01:19;21.10;51.40
62809;DHT22;48848;39.002;-94.584;2022-09-12T08:03:47;21.10;51.30
62809;DHT22;48848;39.002;-94.584;2022-09-12T08:06:16;21.10;51.10
62809;DHT22;48848;39.002;-94.584;2022-09-12T08:08:46;21.10;51.00
62809;DHT22;48848;39.002;-94.584;2022-09-12T08:11:14;21.10;50.90
62809;DHT22;48848;39.002;-94.584;2022-09-12T08:13:42;21.10;50.90
62809;DHT22;48848;39.002;-94.584;2022-09-12T08:16:16;21.10;50.80
62809;DHT22;48848;39.002;-94.584;2022-09-12T08:18:43;21.10;50.90
62809;DHT22;48848;39.002;-94.584;2022-09-12T08:21:13;21.10;51.20
62809;DHT22;48848;39.002;-94.584;2022-09-12T08:23:40;21.00;51.30
62809;DHT22;48848;39.002;-94.584;2022-09-12T08:26:08;21.00;51.50
62809;DHT22;48848;39.002;-94.584;2022-09-12T08:28:35;21.00;51.30
62809;DHT22;48848;39.002;-94.584;2022-09-12T08:31:06;21.00;51.30
62809;DHT22;48848;39.002;-94.584;2022-09-12T08:33:33;21.00;51.10
62809;DHT22;48848;39.002;-94.584;2022-09-12T08:36:11;21.00;51.00
62809;DHT22;48848;39.002;-94.584;2022-09-12T08:38:39;21.00;51.10
62809;DHT22;48848;39.002;-94.584;2022-09-12T08:49:12;20.90;51.10
62809;DHT22;48848;39.002;-94.584;2022-09-12T08:51:40;21.00;51.30
62809;DHT22;48848;39.002;-94.584;2022-09-12T08:54:22;20.90;51.30
62809;DHT22;48848;39.002;-94.584;2022-09-12T08:56:50;20.90;51.00
62809;DHT22;48848;39.002;-94.584;2022-09-12T08:59:21;20.90;51.10
62809;DHT22;48848;39.002;-94.584;2022-09-12T09:01:48;20.90;51.00
62809;DHT22;48848;39.002;-94.584;2022-09-12T09:17:49;20.90;50.90
62809;DHT22;48848;39.002;-94.584;2022-09-12T09:28:29;20.80;51.20
62809;DHT22;48848;39.002;-94.584;2022-09-12T09:30:57;20.80;50.90
62809;DHT22;48848;39.002;-94.584;2022-09-12T09:33:27;20.80;50.90
62809;DHT22;48848;39.002;-94.584;2022-09-12T09:38:44;20.70;51.00
62809;DHT22;48848;39.002;-94.584;2022-09-12T09:44:11;20.70;51.30
62809;DHT22;48848;39.002;-94.584;2022-09-12T09:46:38;20.70;51.20
62809;DHT22;48848;39.002;-94.584;2022-09-12T09:49:04;20.70;51.00
62809;DHT22;48848;39.002;-94.584;2022-09-12T09:51:39;20.70;51.10
62809;DHT22;48848;39.002;-94.584;2022-09-12T09:54:17;20.70;50.90
62809;DHT22;48848;39.002;-94.584;2022-09-12T09:56:45;20.70;50.90
62809;DHT22;48848;39.002;-94.584;2022-09-12T09:59:35;20.70;51.00
62809;DHT22;48848;39.002;-94.584;2022-09-12T10:02:23;20.60;51.10
62809;DHT22;48848;39.002;-94.584;2022-09-12T10:04:59;20.60;51.00
62809;DHT22;48848;39.002;-94.584;2022-09-12T10:07:26;20.60;51.30
62809;DHT22;48848;39.002;-94.584;2022-09-12T10:10:15;20.60;50.90
62809;DHT22;48848;39.002;-94.584;2022-09-12T10:12:42;20.60;50.90
62809;DHT22;48848;39.002;-94.584;2022-09-12T10:15:25;20.60;51.10
62809;DHT22;48848;39.002;-94.584;2022-09-12T10:17:52;20.60;51.10
62809;DHT22;48848;39.002;-94.584;2022-09-12T10:20:41;20.60;51.10
62809;DHT22;48848;39.002;-94.584;2022-09-12T10:23:47;20.60;51.10
62809;DHT22;48848;39.002;-94.584;2022-09-12T10:26:18;20.60;51.30
62809;DHT22;48848;39.002;-94.584;2022-09-12T10:28:53;20.60;51.20
62809;DHT22;48848;39.002;-94.584;2022-09-12T10:31:34;20.50;51.30
62809;DHT22;48848;39.002;-94.584;2022-09-12T10:34:03;20.50;51.30
62809;DHT22;48848;39.002;-94.584;2022-09-12T10:36:37;20.50;51.30
62809;DHT22;48848;39.002;-94.584;2022-09-12T10:39:05;20.50;51.40
62809;DHT22;48848;39.002;-94.584;2022-09-12T10:41:37;20.50;51.10
62809;DHT22;48848;39.002;-94.584;2022-09-12T10:44:33;20.50;51.30
62809;DHT22;48848;39.002;-94.584;2022-09-12T10:47:00;20.50;51.20
62809;DHT22;48848;39.002;-94.584;2022-09-12T10:49:44;20.50;51.20
62809;DHT22;48848;39.002;-94.584;2022-09-12T10:52:22;20.50;51.20
62809;DHT22;48848;39.002;-94.584;2022-09-12T10:54:49;20.40;51.00
62809;DHT22;48848;39.002;-94.584;2022-09-12T11:00:06;20.40;50.90
62809;DHT22;48848;39.002;-94.584;2022-09-12T11:03:15;20.50;51.20
62809;DHT22;48848;39.002;-94.584;2022-09-12T11:05:55;20.40;51.10
62809;DHT22;48848;39.002;-94.584;2022-09-12T11:14:34;20.40;51.20
62809;DHT22;48848;39.002;-94.584;2022-09-12T11:19:43;20.40;51.20
62809;DHT22;48848;39.002;-94.584;2022-09-12T11:22:20;20.40;51.10
62809;DHT22;48848;39.002;-94.584;2022-09-12T11:25:12;20.40;51.30
62809;DHT22;48848;39.002;-94.584;2022-09-12T11:27:50;20.40;51.10
62809;DHT22;48848;39.002;-94.584;2022-09-12T11:30:19;20.30;51.00
62809;DHT22;48848;39.002;-94.584;2022-09-12T11:32:52;20.30;51.10
62809;DHT22;48848;39.002;-94.584;2022-09-12T11:35:27;20.30;51.20
62809;DHT22;48848;39.002;-94.584;2022-09-12T11:43:02;20.30;51.10
62809;DHT22;48848;39.002;-94.584;2022-09-12T11:45:37;20.30;51.20
62809;DHT22;48848;39.002;-94.584;2022-09-12T11:48:16;20.30;51.20
62809;DHT22;48848;39.002;-94.584;2022-09-12T11:50:44;20.30;51.10
62809;DHT22;48848;39.002;-94.584;2022-09-12T11:53:13;20.30;51.40
62809;DHT22;48848;39.002;-94.584;2022-09-12T11:55:54;20.20;51.30
62809;DHT22;48848;39.002;-94.584;2022-09-12T11:58:25;20.20;51.30
62809;DHT22;48848;39.002;-94.584;2022-09-12T12:01:16;20.30;51.20
62809;DHT22;48848;39.002;-94.584;2022-09-12T12:03:46;20.30;51.40
62809;DHT22;48848;39.002;-94.584;2022-09-12T12:06:15;20.30;51.20
62809;DHT22;48848;39.002;-94.584;2022-09-12T12:08:45;20.20;51.30
62809;DHT22;48848;39.002;-94.584;2022-09-12T12:11:14;20.20;51.50
62809;DHT22;48848;39.002;-94.584;2022-09-12T12:13:54;20.20;51.20
62809;DHT22;48848;39.002;-94.584;2022-09-12T12:16:27;20.20;51.30
62809;DHT22;48848;39.002;-94.584;2022-09-12T12:18:59;20.20;51.70
62809;DHT22;48848;39.002;-94.584;2022-09-12T12:21:31;20.20;51.60
62809;DHT22;48848;39.002;-94.584;2022-09-12T12:24:12;20.20;51.50
62809;DHT22;48848;39.002;-94.584;2022-09-12T12:34:28;20.20;51.60
62809;DHT22;48848;39.002;-94.584;2022-09-12T12:36:56;20.10;51.60
62809;DHT22;48848;39.002;-94.584;2022-09-12T12:41:58;20.10;52.20
62809;DHT22;48848;39.002;-94.584;2022-09-12T12:47:19;20.10;51.90
62809;DHT22;48848;39.002;-94.584;2022-09-12T12:49:55;20.10;52.20
62809;DHT22;48848;39.002;-94.584;2022-09-12T12:52:23;20.10;52.20
62809;DHT22;48848;39.002;-94.584;2022-09-12T12:55:00;20.10;53.00
62809;DHT22;48848;39.002;-94.584;2022-09-12T12:57:33;20.00;52.60
62809;DHT22;48848;39.002;-94.584;2022-09-12T13:00:30;20.00;53.30
62809;DHT22;48848;39.002;-94.584;2022-09-12T13:03:25;20.10;53.30
62809;DHT22;48848;39.002;-94.584;2022-09-12T13:06:01;20.10;52.80
62809;DHT22;48848;39.002;-94.584;2022-09-12T13:08:29;20.10;53.70
62809;DHT22;48848;39.002;-94.584;2022-09-12T13:11:07;20.00;53.40
62809;DHT22;48848;39.002;-94.584;2022-09-12T13:13:48;20.00;54.30
62809;DHT22;48848;39.002;-94.584;2022-09-12T13:17:07;20.00;53.80
62809;DHT22;48848;39.002;-94.584;2022-09-12T13:19:31;20.00;54.90
62809;DHT22;48848;39.002;-94.584;2022-09-12T13:22:02;20.00;54.80
62809;DHT22;48848;39.002;-94.584;2022-09-12T13:24:29;20.00;55.40
62809;DHT22;48848;39.002;-94.584;2022-09-12T13:26:56;20.00;54.40
62809;DHT22;48848;39.002;-94.584;2022-09-12T13:29:26;20.00;54.30
62809;DHT22;48848;39.002;-94.584;2022-09-12T13:31:58;20.00;54.50
62809;DHT22;48848;39.002;-94.584;2022-09-12T13:34:25;20.00;54.10
62809;DHT22;48848;39.002;-94.584;2022-09-12T13:43:07;20.10;56.20
62809;DHT22;48848;39.002;-94.584;2022-09-12T13:45:37;20.10;54.30
62809;DHT22;48848;39.002;-94.584;2022-09-12T13:48:09;20.00;54.40
62809;DHT22;48848;39.002;-94.584;2022-09-12T13:50:52;20.10;54.20
62809;DHT22;48848;39.002;-94.584;2022-09-12T13:53:22;20.10;54.00
62809;DHT22;48848;39.002;-94.584;2022-09-12T13:55:59;20.10;54.00
62809;DHT22;48848;39.002;-94.584;2022-09-12T13:58:31;20.10;53.80
62809;DHT22;48848;39.002;-94.584;2022-09-12T14:01:09;20.10;53.60
62809;DHT22;48848;39.002;-94.584;2022-09-12T14:03:55;20.10;53.60
62809;DHT22;48848;39.002;-94.584;2022-09-12T14:06:49;20.10;53.50
62809;DHT22;48848;39.002;-94.584;2022-09-12T14:09:24;20.10;53.60
62809;DHT22;48848;39.002;-94.584;2022-09-12T14:11:52;20.10;53.40
62809;DHT22;48848;39.002;-94.584;2022-09-12T14:14:30;20.10;52.90
62809;DHT22;48848;39.002;-94.584;2022-09-12T14:16:58;20.10;53.20
62809;DHT22;48848;39.002;-94.584;2022-09-12T14:19:25;20.10;52.80
62809;DHT22;48848;39.002;-94.584;2022-09-12T14:21:55;20.20;53.00
62809;DHT22;48848;39.002;-94.584;2022-09-12T14:24:21;20.10;52.90
62809;DHT22;48848;39.002;-94.584;2022-09-12T14:26:51;20.20;53.20
62809;DHT22;48848;39.002;-94.584;2022-09-12T14:29:18;20.30;53.30
62809;DHT22;48848;39.002;-94.584;2022-09-12T14:31:45;20.30;52.90
62809;DHT22;48848;39.002;-94.584;2022-09-12T14:34:13;20.30;53.00
62809;DHT22;48848;39.002;-94.584;2022-09-12T14:36:49;20.20;52.80
62809;DHT22;48848;39.002;-94.584;2022-09-12T14:39:23;20.30;52.90
62809;DHT22;48848;39.002;-94.584;2022-09-12T14:41:58;20.20;52.90
62809;DHT22;48848;39.002;-94.584;2022-09-12T14:44:27;20.20;53.10
62809;DHT22;48848;39.002;-94.584;2022-09-12T14:46:54;20.30;53.10
62809;DHT22;48848;39.002;-94.584;2022-09-12T14:49:34;20.20;53.70
62809;DHT22;48848;39.002;-94.584;2022-09-12T14:52:04;20.20;52.70
62809;DHT22;48848;39.002;-94.584;2022-09-12T14:57:03;20.30;52.50
62809;DHT22;48848;39.002;-94.584;2022-09-12T14:59:37;20.30;52.60
62809;DHT22;48848;39.002;-94.584;2022-09-12T15:02:30;20.30;52.60
62809;DHT22;48848;39.002;-94.584;2022-09-12T15:07:40;20.30;53.00
62809;DHT22;48848;39.002;-94.584;2022-09-12T15:12:48;20.30;54.20
62809;DHT22;48848;39.002;-94.584;2022-09-12T15:15:19;20.30;53.90
62809;DHT22;48848;39.002;-94.584;2022-09-12T15:17:46;20.30;55.60
62809;DHT22;48848;39.002;-94.584;2022-09-12T15:20:13;20.40;55.20
62809;DHT22;48848;39.002;-94.584;2022-09-12T15:22:41;20.40;55.20
62809;DHT22;48848;39.002;-94.584;2022-09-12T15:25:08;20.40;55.30
62809;DHT22;48848;39.002;-94.584;2022-09-12T15:27:35;20.50;55.30
62809;DHT22;48848;39.002;-94.584;2022-09-12T15:30:07;20.50;55.20
62809;DHT22;48848;39.002;-94.584;2022-09-12T15:32:35;20.50;54.90
62809;DHT22;48848;39.002;-94.584;2022-09-12T15:35:02;20.50;55.00
62809;DHT22;48848;39.002;-94.584;2022-09-12T15:37:28;20.50;54.50
62809;DHT22;48848;39.002;-94.584;2022-09-12T15:39:54;20.60;55.00
62809;DHT22;48848;39.002;-94.584;2022-09-12T15:42:27;20.60;54.80
62809;DHT22;48848;39.002;-94.584;2022-09-12T15:44:54;20.60;54.30
62809;DHT22;48848;39.002;-94.584;2022-09-12T15:47:20;20.60;54.80
62809;DHT22;48848;39.002;-94.584;2022-09-12T15:49:47;20.60;54.70
62809;DHT22;48848;39.002;-94.584;2022-09-12T15:52:16;20.60;54.40
62809;DHT22;48848;39.002;-94.584;2022-09-12T15:54:42;20.70;54.80
62809;DHT22;48848;39.002;-94.584;2022-09-12T15:57:09;20.70;54.30
62809;DHT22;48848;39.002;-94.584;2022-09-12T15:59:35;20.70;55.20
62809;DHT22;48848;39.002;-94.584;2022-09-12T16:02:02;20.70;54.10
62809;DHT22;48848;39.002;-94.584;2022-09-12T16:04:28;20.70;53.90
62809;DHT22;48848;39.002;-94.584;2022-09-12T16:06:55;20.70;53.90
62809;DHT22;48848;39.002;-94.584;2022-09-12T16:09:22;20.80;53.90
62809;DHT22;48848;39.002;-94.584;2022-09-12T16:11:49;20.80;54.00
62809;DHT22;48848;39.002;-94.584;2022-09-12T16:14:16;20.80;54.00
62809;DHT22;48848;39.002;-94.584;2022-09-12T16:16:45;20.80;54.00
62809;DHT22;48848;39.002;-94.584;2022-09-12T16:19:16;20.90;54.00
62809;DHT22;48848;39.002;-94.584;2022-09-12T16:21:42;20.90;54.00
62809;DHT22;48848;39.002;-94.584;2022-09-12T16:24:08;20.90;54.00
62809;DHT22;48848;39.002;-94.584;2022-09-12T16:26:34;20.90;53.80
62809;DHT22;48848;39.002;-94.584;2022-09-12T16:29:01;20.90;53.50
62809;DHT22;48848;39.002;-94.584;2022-09-12T16:31:27;21.00;53.50
62809;DHT22;48848;39.002;-94.584;2022-09-12T16:33:53;21.00;53.50
62809;DHT22;48848;39.002;-94.584;2022-09-12T16:36:20;21.00;53.30
62809;DHT22;48848;39.002;-94.584;2022-09-12T16:38:50;21.00;53.00
62809;DHT22;48848;39.002;-94.584;2022-09-12T16:41:18;21.00;53.10
62809;DHT22;48848;39.002;-94.584;2022-09-12T16:43:44;21.00;53.10
62809;DHT22;48848;39.002;-94.584;2022-09-12T16:46:16;21.10;53.10
62809;DHT22;48848;39.002;-94.584;2022-09-12T16:48:45;21.10;52.90
62809;DHT22;48848;39.002;-94.584;2022-09-12T16:51:14;21.10;53.00
62809;DHT22;48848;39.002;-94.584;2022-09-12T16:53:41;21.10;52.70
62809;DHT22;48848;39.002;-94.584;2022-09-12T16:56:08;21.20;52.80
62809;DHT22;48848;39.002;-94.584;2022-09-12T16:58:36;21.20;52.60
62809;DHT22;48848;39.002;-94.584;2022-09-12T17:03:34;21.20;52.50
62809;DHT22;48848;39.002;-94.584;2022-09-12T17:06:21;21.30;52.50
62809;DHT22;48848;39.002;-94.584;2022-09-12T17:08:50;21.30;52.40
62809;DHT22;48848;39.002;-94.584;2022-09-12T17:11:23;21.30;52.30
62809;DHT22;48848;39.002;-94.584;2022-09-12T17:13:51;21.40;52.40
62809;DHT22;48848;39.002;-94.584;2022-09-12T17:16:19;21.40;52.40
62809;DHT22;48848;39.002;-94.584;2022-09-12T17:18:45;21.40;53.40
62809;DHT22;48848;39.002;-94.584;2022-09-12T17:21:12;21.40;52.10
62809;DHT22;48848;39.002;-94.584;2022-09-12T17:23:39;21.40;51.90
62809;DHT22;48848;39.002;-94.584;2022-09-12T17:26:06;21.50;52.00
62809;DHT22;48848;39.002;-94.584;2022-09-12T17:28:32;21.50;51.80
62809;DHT22;48848;39.002;-94.584;2022-09-12T17:31:01;21.50;51.70
62809;DHT22;48848;39.002;-94.584;2022-09-12T17:33:28;21.60;51.90
62809;DHT22;48848;39.002;-94.584;2022-09-12T17:35:59;21.60;51.90
62809;DHT22;48848;39.002;-94.584;2022-09-12T17:38:25;21.60;51.80